sensor_id;sensor_type;location;lat;lon;timestamp;temperature;humidity
37478;DHT22;23334;54.316;10.182;2022-07-23T00:01:32;15.40;99.90
37478;DHT22;23334;54.316;10.182;2022-07-23T00:06:24;15.40;99.90
37478;DHT22;23334;54.316;10.182;2022-07-23T00:08:50;15.40;99.90
37478;DHT22;23334;54.316;10.182;2022-07-23T00:11:17;15.30;99.90
37478;DHT22;23334;54.316;10.182;2022-07-23T00:13:42;15.30;99.90
37478;DHT22;23334;54.316;10.182;2022-07-23T00:16:08;15.30;99.90
37478;DHT22;23334;54.316;10.182;2022-07-23T00:18:34;15.30;99.90
37478;DHT22;23334;54.316;10.182;2022-07-23T00:20:59;15.40;99.90
37478;DHT22;23334;54.316;10.182;2022-07-23T00:25:52;15.20;99.90
37478;DHT22;23334;54.316;10.182;2022-07-23T00:28:18;15.40;99.90
37478;DHT22;23334;54.316;10.182;2022-07-23T00:30:44;15.20;99.90
37478;DHT22;23334;54.316;10.182;2022-07-23T00:33:10;15.40;99.90
37478;DHT22;23334;54.316;10.182;2022-07-23T00:35:38;15.30;99.90
37478;DHT22;23334;54.316;10.182;2022-07-23T00:38:07;15.30;99.90
37478;DHT22;23334;54.316;10.182;2022-07-23T00:40:34;15.30;99.90
37478;DHT22;23334;54.316;10.182;2022-07-23T00:55:10;15.20;99.90
37478;DHT22;23334;54.316;10.182;2022-07-23T00:57:37;15.30;99.90
37478;DHT22;23334;54.316;10.182;2022-07-23T01:00:08;15.20;99.90
37478;DHT22;23334;54.316;10.182;2022-07-23T01:02:34;15.10;99.90
37478;DHT22;23334;54.316;10.182;2022-07-23T01:04:59;15.20;99.90
37478;DHT22;23334;54.316;10.182;2022-07-23T01:07:25;15.00;99.90
37478;DHT22;23334;54.316;10.182;2022-07-23T01:09:52;15.10;99.90
37478;DHT22;23334;54.316;10.182;2022-07-23T01:12:18;15.10;99.90
37478;DHT22;23334;54.316;10.182;2022-07-23T01:14:44;15.10;99.90
37478;DHT22;23334;54.316;10.182;2022-07-23T01:17:09;15.10;99.90
37478;DHT22;23334;54.316;10.182;2022-07-23T01:19:35;15.10;99.90
37478;DHT22;23334;54.316;10.182;2022-07-23T01:22:02;15.10;99.90
37478;DHT22;23334;54.316;10.182;2022-07-23T01:24:28;15.10;99.90
37478;DHT22;23334;54.316;10.182;2022-07-23T01:29:20;15.10;99.90
37478;DHT22;23334;54.316;10.182;2022-07-23T01:31:47;14.90;99.90
37478;DHT22;23334;54.316;10.182;2022-07-23T01:39:06;15.10;99.90
37478;DHT22;23334;54.316;10.182;2022-07-23T01:48:52;15.10;99.90
37478;DHT22;23334;54.316;10.182;2022-07-23T02:03:27;15.00;99.90
37478;DHT22;23334;54.316;10.182;2022-07-23T02:05:53;15.10;99.90
37478;DHT22;23334;54.316;10.182;2022-07-23T02:08:18;15.00;99.90
37478;DHT22;23334;54.316;10.182;2022-07-23T02:13:11;15.10;99.90
37478;DHT22;23334;54.316;10.182;2022-07-23T02:15:36;14.90;99.90
37478;DHT22;23334;54.316;10.182;2022-07-23T02:27:46;15.00;99.90
37478;DHT22;23334;54.316;10.182;2022-07-23T02:30:11;15.00;99.90
37478;DHT22;23334;54.316;10.182;2022-07-23T02:32:37;14.60;99.90
37478;DHT22;23334;54.316;10.182;2022-07-23T02:35:05;14.80;99.90
37478;DHT22;23334;54.316;10.182;2022-07-23T02:37:31;14.90;99.90
37478;DHT22;23334;54.316;10.182;2022-07-23T02:42:23;14.80;99.90
37478;DHT22;23334;54.316;10.182;2022-07-23T02:44:52;15.00;99.90
37478;DHT22;23334;54.316;10.182;2022-07-23T02:57:02;14.90;99.90
37478;DHT22;23334;54.316;10.182;2022-07-23T02:59:28;14.90;99.90
37478;DHT22;23334;54.316;10.182;2022-07-23T03:01:54;14.90;99.90
37478;DHT22;23334;54.316;10.182;2022-07-23T03:04:19;14.80;99.90
37478;DHT22;23334;54.316;10.182;2022-07-23T03:06:45;14.90;99.90
37478;DHT22;23334;54.316;10.182;2022-07-23T03:09:10;14.90;99.90
37478;DHT22;23334;54.316;10.182;2022-07-23T03:11:36;14.90;99.90
37478;DHT22;23334;54.316;10.182;2022-07-23T03:14:01;15.00;99.90
37478;DHT22;23334;54.316;10.182;2022-07-23T03:16:27;14.90;99.90
37478;DHT22;23334;54.316;10.182;2022-07-23T03:18:52;15.10;99.90
37478;DHT22;23334;54.316;10.182;2022-07-23T03:21:18;15.00;99.90
37478;DHT22;23334;54.316;10.182;2022-07-23T03:23:44;15.00;99.90
37478;DHT22;23334;54.316;10.182;2022-07-23T03:26:09;15.00;99.90
37478;DHT22;23334;54.316;10.182;2022-07-23T03:28:35;15.00;99.90
37478;DHT22;23334;54.316;10.182;2022-07-23T03:31:00;15.00;99.90
37478;DHT22;23334;54.316;10.182;2022-07-23T03:33:26;15.00;99.90
37478;DHT22;23334;54.316;10.182;2022-07-23T03:35:51;15.10;99.90
37478;DHT22;23334;54.316;10.182;2022-07-23T03:38:17;15.10;99.90
37478;DHT22;23334;54.316;10.182;2022-07-23T03:40:43;15.10;99.90
37478;DHT22;23334;54.316;10.182;2022-07-23T03:43:08;15.10;99.90
37478;DHT22;23334;54.316;10.182;2022-07-23T03:45:34;15.00;99.90
37478;DHT22;23334;54.316;10.182;2022-07-23T03:47:59;15.00;99.90
37478;DHT22;23334;54.316;10.182;2022-07-23T03:50:25;15.00;99.90
37478;DHT22;23334;54.316;10.182;2022-07-23T03:52:51;15.00;99.90
37478;DHT22;23334;54.316;10.182;2022-07-23T03:55:17;15.00;99.90
37478;DHT22;23334;54.316;10.182;2022-07-23T03:57:43;15.00;99.90
37478;DHT22;23334;54.316;10.182;2022-07-23T04:00:10;15.00;99.90
37478;DHT22;23334;54.316;10.182;2022-07-23T04:02:37;15.00;99.90
37478;DHT22;23334;54.316;10.182;2022-07-23T04:05:03;15.00;99.90
37478;DHT22;23334;54.316;10.182;2022-07-23T04:07:28;15.10;99.90
37478;DHT22;23334;54.316;10.182;2022-07-23T04:09:54;15.00;99.90
37478;DHT22;23334;54.316;10.182;2022-07-23T04:12:20;18.30;99.90
37478;DHT22;23334;54.316;10.182;2022-07-23T04:14:45;15.10;99.90
37478;DHT22;23334;54.316;10.182;2022-07-23T04:17:12;15.10;99.90
37478;DHT22;23334;54.316;10.182;2022-07-23T04:19:37;15.20;99.90
37478;DHT22;23334;54.316;10.182;2022-07-23T04:22:07;15.20;99.90
37478;DHT22;23334;54.316;10.182;2022-07-23T04:24:33;15.40;99.90
37478;DHT22;23334;54.316;10.182;2022-07-23T04:26:58;15.50;99.90
37478;DHT22;23334;54.316;10.182;2022-07-23T04:29:24;15.50;99.90
37478;DHT22;23334;54.316;10.182;2022-07-23T04:31:50;15.60;99.90
37478;DHT22;23334;54.316;10.182;2022-07-23T04:34:16;15.70;99.90
37478;DHT22;23334;54.316;10.182;2022-07-23T04:36:41;15.90;99.90
37478;DHT22;23334;54.316;10.182;2022-07-23T04:39:07;15.90;99.90
37478;DHT22;23334;54.316;10.182;2022-07-23T04:44:00;16.10;99.90
37478;DHT22;23334;54.316;10.182;2022-07-23T04:46:25;16.10;99.90
37478;DHT22;23334;54.316;10.182;2022-07-23T04:48:51;16.20;99.90
37478;DHT22;23334;54.316;10.182;2022-07-23T04:53:43;16.20;99.90
37478;DHT22;23334;54.316;10.182;2022-07-23T04:56:08;16.30;99.90
37478;DHT22;23334;54.316;10.182;2022-07-23T04:58:34;16.30;99.90
37478;DHT22;23334;54.316;10.182;2022-07-23T05:01:00;16.30;99.90
37478;DHT22;23334;54.316;10.182;2022-07-23T05:03:25;16.30;99.90
37478;DHT22;23334;54.316;10.182;2022-07-23T05:05:51;16.40;99.90
37478;DHT22;23334;54.316;10.182;2022-07-23T05:08:16;16.40;99.90
37478;DHT22;23334;54.316;10.182;2022-07-23T05:10:42;16.40;99.90
37478;DHT22;23334;54.316;10.182;2022-07-23T05:13:08;16.30;99.90
37478;DHT22;23334;54.316;10.182;2022-07-23T05:15:34;16.20;99.90
37478;DHT22;23334;54.316;10.182;2022-07-23T05:17:59;16.20;99.90
37478;DHT22;23334;54.316;10.182;2022-07-23T05:20:25;16.20;99.90
37478;DHT22;23334;54.316;10.182;2022-07-23T05:22:51;16.30;99.90
37478;DHT22;23334;54.316;10.182;2022-07-23T05:25:16;16.10;99.90
37478;DHT22;23334;54.316;10.182;2022-07-23T05:27:42;16.00;99.90
37478;DHT22;23334;54.316;10.182;2022-07-23T05:30:08;16.00;99.90
37478;DHT22;23334;54.316;10.182;2022-07-23T05:32:34;16.10;99.90
37478;DHT22;23334;54.316;10.182;2022-07-23T05:35:02;16.60;99.90
37478;DHT22;23334;54.316;10.182;2022-07-23T05:37:28;16.20;99.90
37478;DHT22;23334;54.316;10.182;2022-07-23T05:39:53;16.50;99.90
37478;DHT22;23334;54.316;10.182;2022-07-23T05:42:19;16.20;99.90
37478;DHT22;23334;54.316;10.182;2022-07-23T05:44:44;16.40;99.90
37478;DHT22;23334;54.316;10.182;2022-07-23T05:47:10;16.50;99.90
37478;DHT22;23334;54.316;10.182;2022-07-23T05:49:37;16.30;99.90
37478;DHT22;23334;54.316;10.182;2022-07-23T05:52:05;16.40;99.90
37478;DHT22;23334;54.316;10.182;2022-07-23T05:54:31;16.50;99.90
37478;DHT22;23334;54.316;10.182;2022-07-23T05:56:56;16.60;99.90
37478;DHT22;23334;54.316;10.182;2022-07-23T05:59:22;16.70;99.90
37478;DHT22;23334;54.316;10.182;2022-07-23T06:01:47;16.80;99.90
37478;DHT22;23334;54.316;10.182;2022-07-23T06:04:13;16.70;99.90
37478;DHT22;23334;54.316;10.182;2022-07-23T06:06:38;16.80;99.90
37478;DHT22;23334;54.316;10.182;2022-07-23T06:09:04;17.00;99.90
37478;DHT22;23334;54.316;10.182;2022-07-23T06:11:29;16.90;99.90
37478;DHT22;23334;54.316;10.182;2022-07-23T06:13:55;16.80;99.90
37478;DHT22;23334;54.316;10.182;2022-07-23T06:16:21;16.90;99.90
37478;DHT22;23334;54.316;10.182;2022-07-23T06:18:46;16.90;99.90
37478;DHT22;23334;54.316;10.182;2022-07-23T06:21:12;17.00;99.90
37478;DHT22;23334;54.316;10.182;2022-07-23T06:23:37;17.10;99.90
37478;DHT22;23334;54.316;10.182;2022-07-23T06:26:03;17.20;99.90
37478;DHT22;23334;54.316;10.182;2022-07-23T06:28:28;17.40;99.90
37478;DHT22;23334;54.316;10.182;2022-07-23T06:30:54;17.50;99.90
37478;DHT22;23334;54.316;10.182;2022-07-23T06:33:20;17.70;99.90
37478;DHT22;23334;54.316;10.182;2022-07-23T06:35:45;17.60;99.90
37478;DHT22;23334;54.316;10.182;2022-07-23T06:38:11;17.50;99.90
37478;DHT22;23334;54.316;10.182;2022-07-23T06:40:36;17.50;99.90
37478;DHT22;23334;54.316;10.182;2022-07-23T06:43:02;17.30;99.90
37478;DHT22;23334;54.316;10.182;2022-07-23T06:45:28;17.20;99.90
37478;DHT22;23334;54.316;10.182;2022-07-23T06:47:54;17.00;99.90
37478;DHT22;23334;54.316;10.182;2022-07-23T06:50:20;17.00;99.90
37478;DHT22;23334;54.316;10.182;2022-07-23T06:52:46;17.00;99.90
37478;DHT22;23334;54.316;10.182;2022-07-23T06:55:11;16.90;99.90
37478;DHT22;23334;54.316;10.182;2022-07-23T06:57:37;16.90;99.90
37478;DHT22;23334;54.316;10.182;2022-07-23T07:00:03;16.90;99.90
37478;DHT22;23334;54.316;10.182;2022-07-23T07:02:29;16.90;99.90
37478;DHT22;23334;54.316;10.182;2022-07-23T07:04:55;17.10;99.90
37478;DHT22;23334;54.316;10.182;2022-07-23T07:07:21;17.30;99.90
37478;DHT22;23334;54.316;10.182;2022-07-23T07:09:47;17.30;99.90
37478;DHT22;23334;54.316;10.182;2022-07-23T07:12:12;17.40;99.90
37478;DHT22;23334;54.316;10.182;2022-07-23T07:14:38;17.40;99.90
37478;DHT22;23334;54.316;10.182;2022-07-23T07:17:03;17.20;99.90
37478;DHT22;23334;54.316;10.182;2022-07-23T07:19:29;17.30;99.90
37478;DHT22;23334;54.316;10.182;2022-07-23T07:21:55;17.20;99.90
37478;DHT22;23334;54.316;10.182;2022-07-23T07:24:20;17.20;99.90
37478;DHT22;23334;54.316;10.182;2022-07-23T07:26:46;17.10;99.90
37478;DHT22;23334;54.316;10.182;2022-07-23T07:29:11;17.10;99.90
37478;DHT22;23334;54.316;10.182;2022-07-23T07:31:37;17.00;99.90
37478;DHT22;23334;54.316;10.182;2022-07-23T07:34:02;16.80;99.90
37478;DHT22;23334;54.316;10.182;2022-07-23T07:36:28;16.80;99.90
37478;DHT22;23334;54.316;10.182;2022-07-23T07:38:54;16.80;99.90
37478;DHT22;23334;54.316;10.182;2022-07-23T07:41:19;16.90;99.90
37478;DHT22;23334;54.316;10.182;2022-07-23T07:43:49;17.00;99.90
37478;DHT22;23334;54.316;10.182;2022-07-23T07:46:15;17.20;99.90
37478;DHT22;23334;54.316;10.182;2022-07-23T07:48:40;17.30;99.90
37478;DHT22;23334;54.316;10.182;2022-07-23T07:51:06;17.40;99.90
37478;DHT22;23334;54.316;10.182;2022-07-23T07:53:32;17.50;99.90
37478;DHT22;23334;54.316;10.182;2022-07-23T07:55:57;17.60;99.90
37478;DHT22;23334;54.316;10.182;2022-07-23T07:58:23;17.50;99.90
37478;DHT22;23334;54.316;10.182;2022-07-23T09:52:29;20.00;99.90
37478;DHT22;23334;54.316;10.182;2022-07-23T09:55:00;20.20;99.90
37478;DHT22;23334;54.316;10.182;2022-07-23T09:59:52;22.50;99.90
37478;DHT22;23334;54.316;10.182;2022-07-23T10:02:18;23.80;99.90
37478;DHT22;23334;54.316;10.182;2022-07-23T10:04:45;23.90;99.90
37478;DHT22;23334;54.316;10.182;2022-07-23T10:07:11;24.20;99.90
37478;DHT22;23334;54.316;10.182;2022-07-23T10:09:39;24.50;99.90
37478;DHT22;23334;54.316;10.182;2022-07-23T10:12:13;24.70;99.90
37478;DHT22;23334;54.316;10.182;2022-07-23T10:14:58;25.50;99.90
37478;DHT22;23334;54.316;10.182;2022-07-23T10:22:22;25.40;99.90
37478;DHT22;23334;54.316;10.182;2022-07-23T11:01:35;20.40;99.90
37478;DHT22;23334;54.316;10.182;2022-07-23T11:04:02;19.70;99.90
37478;DHT22;23334;54.316;10.182;2022-07-23T11:09:41;19.10;99.90
37478;DHT22;23334;54.316;10.182;2022-07-23T11:14:58;19.10;99.90
37478;DHT22;23334;54.316;10.182;2022-07-23T11:17:24;19.40;99.90
37478;DHT22;23334;54.316;10.182;2022-07-23T11:25:00;19.90;99.90
37478;DHT22;23334;54.316;10.182;2022-07-23T11:27:40;20.00;99.90
37478;DHT22;23334;54.316;10.182;2022-07-23T11:32:53;21.00;99.90
37478;DHT22;23334;54.316;10.182;2022-07-23T11:35:23;20.80;99.90
37478;DHT22;23334;54.316;10.182;2022-07-23T11:37:51;21.00;99.90
37478;DHT22;23334;54.316;10.182;2022-07-23T11:40:24;21.10;99.90
37478;DHT22;23334;54.316;10.182;2022-07-23T11:42:56;21.30;99.90
37478;DHT22;23334;54.316;10.182;2022-07-23T11:45:22;21.50;99.90
37478;DHT22;23334;54.316;10.182;2022-07-23T11:47:48;21.80;99.90
37478;DHT22;23334;54.316;10.182;2022-07-23T11:55:08;21.30;99.90
37478;DHT22;23334;54.316;10.182;2022-07-23T11:57:38;21.30;99.90
37478;DHT22;23334;54.316;10.182;2022-07-23T12:00:28;21.60;99.90
37478;DHT22;23334;54.316;10.182;2022-07-23T12:02:57;21.60;99.90
37478;DHT22;23334;54.316;10.182;2022-07-23T12:05:30;21.50;99.90
37478;DHT22;23334;54.316;10.182;2022-07-23T12:07:58;21.20;99.90
37478;DHT22;23334;54.316;10.182;2022-07-23T12:10:30;21.00;99.90
37478;DHT22;23334;54.316;10.182;2022-07-23T12:12:58;20.70;99.90
37478;DHT22;23334;54.316;10.182;2022-07-23T12:15:30;20.40;99.90
37478;DHT22;23334;54.316;10.182;2022-07-23T12:17:58;20.40;99.90
37478;DHT22;23334;54.316;10.182;2022-07-23T12:20:26;20.40;99.90
37478;DHT22;23334;54.316;10.182;2022-07-23T12:22:56;20.90;99.90
37478;DHT22;23334;54.316;10.182;2022-07-23T12:25:24;21.20;99.90
37478;DHT22;23334;54.316;10.182;2022-07-23T12:33:11;21.70;99.90
37478;DHT22;23334;54.316;10.182;2022-07-23T12:35:42;21.60;99.90
37478;DHT22;23334;54.316;10.182;2022-07-23T12:38:18;21.30;99.90
37478;DHT22;23334;54.316;10.182;2022-07-23T12:46:24;19.90;99.90
37478;DHT22;23334;54.316;10.182;2022-07-23T12:48:53;19.40;99.90
37478;DHT22;23334;54.316;10.182;2022-07-23T12:51:27;18.90;99.90
37478;DHT22;23334;54.316;10.182;2022-07-23T12:54:10;18.50;99.90
37478;DHT22;23334;54.316;10.182;2022-07-23T12:56:38;18.50;99.90
37478;DHT22;23334;54.316;10.182;2022-07-23T12:59:14;18.50;99.90
37478;DHT22;23334;54.316;10.182;2022-07-23T13:01:59;18.50;99.90
37478;DHT22;23334;54.316;10.182;2022-07-23T13:04:26;18.20;99.90
37478;DHT22;23334;54.316;10.182;2022-07-23T13:06:59;18.30;99.90
37478;DHT22;23334;54.316;10.182;2022-07-23T13:09:30;18.60;99.90
37478;DHT22;23334;54.316;10.182;2022-07-23T13:11:57;18.80;99.90
37478;DHT22;23334;54.316;10.182;2022-07-23T13:14:25;19.20;99.90
37478;DHT22;23334;54.316;10.182;2022-07-23T13:16:52;19.90;99.90
37478;DHT22;23334;54.316;10.182;2022-07-23T13:19:18;20.20;99.90
37478;DHT22;23334;54.316;10.182;2022-07-23T13:21:45;20.30;99.90
37478;DHT22;23334;54.316;10.182;2022-07-23T13:24:12;20.40;99.90
37478;DHT22;23334;54.316;10.182;2022-07-23T13:26:38;20.40;99.90
37478;DHT22;23334;54.316;10.182;2022-07-23T13:29:04;20.10;99.90
37478;DHT22;23334;54.316;10.182;2022-07-23T13:43:42;19.50;99.90
37478;DHT22;23334;54.316;10.182;2022-07-23T13:46:07;19.30;99.90
37478;DHT22;23334;54.316;10.182;2022-07-23T13:50:59;19.10;99.90
37478;DHT22;23334;54.316;10.182;2022-07-23T13:55:52;19.00;99.90
37478;DHT22;23334;54.316;10.182;2022-07-23T13:58:18;18.90;99.90
37478;DHT22;23334;54.316;10.182;2022-07-23T14:00:48;19.20;99.90
37478;DHT22;23334;54.316;10.182;2022-07-23T14:03:13;19.40;99.90
37478;DHT22;23334;54.316;10.182;2022-07-23T14:08:07;19.80;99.90
37478;DHT22;23334;54.316;10.182;2022-07-23T14:10:32;20.10;99.90
37478;DHT22;23334;54.316;10.182;2022-07-23T14:15:26;20.10;99.90
37478;DHT22;23334;54.316;10.182;2022-07-23T14:17:55;20.20;99.90
37478;DHT22;23334;54.316;10.182;2022-07-23T14:20:22;20.20;99.90
37478;DHT22;23334;54.316;10.182;2022-07-23T14:25:15;20.20;99.90
37478;DHT22;23334;54.316;10.182;2022-07-23T14:27:40;20.20;99.90
37478;DHT22;23334;54.316;10.182;2022-07-23T14:30:08;20.10;99.90
37478;DHT22;23334;54.316;10.182;2022-07-23T14:39:52;19.40;99.90
37478;DHT22;23334;54.316;10.182;2022-07-23T14:42:18;19.60;99.90
37478;DHT22;23334;54.316;10.182;2022-07-23T14:52:03;20.00;99.90
37478;DHT22;23334;54.316;10.182;2022-07-23T14:54:29;19.90;99.90
37478;DHT22;23334;54.316;10.182;2022-07-23T14:56:56;19.90;99.90
37478;DHT22;23334;54.316;10.182;2022-07-23T15:01:48;19.80;99.90
37478;DHT22;23334;54.316;10.182;2022-07-23T15:04:14;19.80;99.90
37478;DHT22;23334;54.316;10.182;2022-07-23T15:06:40;19.70;99.90
37478;DHT22;23334;54.316;10.182;2022-07-23T15:09:06;19.90;99.90
37478;DHT22;23334;54.316;10.182;2022-07-23T15:11:32;20.20;99.90
37478;DHT22;23334;54.316;10.182;2022-07-23T15:14:00;20.60;99.90
37478;DHT22;23334;54.316;10.182;2022-07-23T15:16:27;20.70;99.90
37478;DHT22;23334;54.316;10.182;2022-07-23T15:18:52;20.70;99.90
37478;DHT22;23334;54.316;10.182;2022-07-23T15:21:18;20.50;99.90
37478;DHT22;23334;54.316;10.182;2022-07-23T15:23:44;20.50;99.90
37478;DHT22;23334;54.316;10.182;2022-07-23T15:26:10;20.40;99.90
37478;DHT22;23334;54.316;10.182;2022-07-23T15:28:36;20.70;99.90
37478;DHT22;23334;54.316;10.182;2022-07-23T15:31:02;20.60;99.90
37478;DHT22;23334;54.316;10.182;2022-07-23T15:33:28;20.60;99.90
37478;DHT22;23334;54.316;10.182;2022-07-23T15:35:54;20.60;99.90
37478;DHT22;23334;54.316;10.182;2022-07-23T15:38:25;20.50;99.90
37478;DHT22;23334;54.316;10.182;2022-07-23T15:40:53;20.40;99.90
37478;DHT22;23334;54.316;10.182;2022-07-23T15:43:19;20.40;99.90
37478;DHT22;23334;54.316;10.182;2022-07-23T15:48:12;20.20;99.90
37478;DHT22;23334;54.316;10.182;2022-07-23T15:53:03;20.10;99.90
37478;DHT22;23334;54.316;10.182;2022-07-23T15:55:29;20.10;99.90
37478;DHT22;23334;54.316;10.182;2022-07-23T15:57:55;20.10;99.90
37478;DHT22;23334;54.316;10.182;2022-07-23T16:00:20;20.40;99.90
37478;DHT22;23334;54.316;10.182;2022-07-23T16:10:05;19.90;99.90
37478;DHT22;23334;54.316;10.182;2022-07-23T16:12:31;19.60;99.90
37478;DHT22;23334;54.316;10.182;2022-07-23T16:14:57;19.90;99.90
37478;DHT22;23334;54.316;10.182;2022-07-23T16:24:42;19.60;99.90
37478;DHT22;23334;54.316;10.182;2022-07-23T16:27:08;19.50;99.90
37478;DHT22;23334;54.316;10.182;2022-07-23T16:29:34;19.30;99.90
37478;DHT22;23334;54.316;10.182;2022-07-23T16:31:59;19.20;99.90
37478;DHT22;23334;54.316;10.182;2022-07-23T16:44:09;19.00;99.90
37478;DHT22;23334;54.316;10.182;2022-07-23T16:56:21;19.00;99.90
37478;DHT22;23334;54.316;10.182;2022-07-23T17:20:42;19.10;99.90
37478;DHT22;23334;54.316;10.182;2022-07-23T17:32:53;18.80;99.90
37478;DHT22;23334;54.316;10.182;2022-07-23T17:35:19;18.70;99.90
37478;DHT22;23334;54.316;10.182;2022-07-23T17:37:45;18.70;99.90
37478;DHT22;23334;54.316;10.182;2022-07-23T17:40:11;18.50;99.90
37478;DHT22;23334;54.316;10.182;2022-07-23T17:42:37;18.50;99.90
37478;DHT22;23334;54.316;10.182;2022-07-23T17:45:04;18.50;99.90
37478;DHT22;23334;54.316;10.182;2022-07-23T17:49:56;18.30;99.90
37478;DHT22;23334;54.316;10.182;2022-07-23T17:52:22;18.20;99.90
37478;DHT22;23334;54.316;10.182;2022-07-23T17:54:47;18.10;99.90
37478;DHT22;23334;54.316;10.182;2022-07-23T18:02:05;17.80;99.90
37478;DHT22;23334;54.316;10.182;2022-07-23T18:04:32;17.90;99.90
37478;DHT22;23334;54.316;10.182;2022-07-23T18:09:24;17.70;99.90
37478;DHT22;23334;54.316;10.182;2022-07-23T18:11:50;17.70;99.90
37478;DHT22;23334;54.316;10.182;2022-07-23T18:16:42;17.80;99.90
37478;DHT22;23334;54.316;10.182;2022-07-23T18:43:28;17.30;99.90
37478;DHT22;23334;54.316;10.182;2022-07-23T18:50:48;17.10;99.90
37478;DHT22;23334;54.316;10.182;2022-07-23T19:00:35;17.00;99.90
37478;DHT22;23334;54.316;10.182;2022-07-23T19:05:27;16.80;99.90
37478;DHT22;23334;54.316;10.182;2022-07-23T19:07:53;16.90;99.90
37478;DHT22;23334;54.316;10.182;2022-07-23T19:10:19;16.80;99.90
37478;DHT22;23334;54.316;10.182;2022-07-23T19:15:12;16.80;99.90
37478;DHT22;23334;54.316;10.182;2022-07-23T19:17:38;16.70;99.90
37478;DHT22;23334;54.316;10.182;2022-07-23T19:20:06;16.60;99.90
37478;DHT22;23334;54.316;10.182;2022-07-23T19:32:17;16.20;99.90
37478;DHT22;23334;54.316;10.182;2022-07-23T19:34:42;16.00;99.90
37478;DHT22;23334;54.316;10.182;2022-07-23T19:37:08;15.80;99.90
37478;DHT22;23334;54.316;10.182;2022-07-23T19:39:42;15.70;99.90
37478;DHT22;23334;54.316;10.182;2022-07-23T19:44:34;15.30;99.90
37478;DHT22;23334;54.316;10.182;2022-07-23T19:51:52;15.10;99.90
37478;DHT22;23334;54.316;10.182;2022-07-23T19:54:18;17.60;99.90
37478;DHT22;23334;54.316;10.182;2022-07-23T20:01:37;15.10;99.90
37478;DHT22;23334;54.316;10.182;2022-07-23T20:04:03;15.00;99.90
37478;DHT22;23334;54.316;10.182;2022-07-23T20:06:29;14.90;99.90
37478;DHT22;23334;54.316;10.182;2022-07-23T20:08:55;15.00;99.90
37478;DHT22;23334;54.316;10.182;2022-07-23T20:13:47;14.70;99.90
37478;DHT22;23334;54.316;10.182;2022-07-23T20:16:13;14.60;99.90
37478;DHT22;23334;54.316;10.182;2022-07-23T20:18:39;14.80;99.90
37478;DHT22;23334;54.316;10.182;2022-07-23T20:21:05;14.40;99.90
37478;DHT22;23334;54.316;10.182;2022-07-23T20:33:20;14.20;99.90
37478;DHT22;23334;54.316;10.182;2022-07-23T20:38:12;14.00;99.90
37478;DHT22;23334;54.316;10.182;2022-07-23T20:40:38;14.00;99.90
37478;DHT22;23334;54.316;10.182;2022-07-23T20:43:06;13.80;99.90
37478;DHT22;23334;54.316;10.182;2022-07-23T20:45:32;14.00;99.90
37478;DHT22;23334;54.316;10.182;2022-07-23T20:47:57;14.00;99.90
37478;DHT22;23334;54.316;10.182;2022-07-23T20:50:26;13.90;99.90
37478;DHT22;23334;54.316;10.182;2022-07-23T20:52:52;14.00;99.90
37478;DHT22;23334;54.316;10.182;2022-07-23T20:55:18;13.70;99.90
37478;DHT22;23334;54.316;10.182;2022-07-23T20:57:44;13.60;99.90
37478;DHT22;23334;54.316;10.182;2022-07-23T21:00:12;13.80;99.90
37478;DHT22;23334;54.316;10.182;2022-07-23T21:02:38;13.60;99.90
37478;DHT22;23334;54.316;10.182;2022-07-23T21:05:04;13.60;99.90
37478;DHT22;23334;54.316;10.182;2022-07-23T21:17:14;13.50;99.90
37478;DHT22;23334;54.316;10.182;2022-07-23T21:19:41;13.40;99.90
37478;DHT22;23334;54.316;10.182;2022-07-23T21:24:33;13.20;99.90
37478;DHT22;23334;54.316;10.182;2022-07-23T21:26:59;13.30;99.90
37478;DHT22;23334;54.316;10.182;2022-07-23T21:29:25;13.30;99.90
37478;DHT22;23334;54.316;10.182;2022-07-23T21:36:45;13.30;99.90
37478;DHT22;23334;54.316;10.182;2022-07-23T21:46:30;13.20;99.90
37478;DHT22;23334;54.316;10.182;2022-07-23T21:48:56;13.20;99.90
37478;DHT22;23334;54.316;10.182;2022-07-23T21:51:22;13.20;99.90
37478;DHT22;23334;54.316;10.182;2022-07-23T21:53:48;13.10;99.90
37478;DHT22;23334;54.316;10.182;2022-07-23T21:56:14;13.00;99.90
37478;DHT22;23334;54.316;10.182;2022-07-23T21:58:39;12.90;99.90
37478;DHT22;23334;54.316;10.182;2022-07-23T22:01:05;13.10;99.90
37478;DHT22;23334;54.316;10.182;2022-07-23T22:03:36;13.00;99.90
37478;DHT22;23334;54.316;10.182;2022-07-23T22:06:01;13.10;99.90
37478;DHT22;23334;54.316;10.182;2022-07-23T22:13:19;12.80;99.90
37478;DHT22;23334;54.316;10.182;2022-07-23T22:15:44;12.70;99.90
37478;DHT22;23334;54.316;10.182;2022-07-23T22:18:10;12.70;99.90
37478;DHT22;23334;54.316;10.182;2022-07-23T22:20:36;12.60;99.90
37478;DHT22;23334;54.316;10.182;2022-07-23T22:35:12;12.00;99.90
37478;DHT22;23334;54.316;10.182;2022-07-23T22:40:05;11.90;99.90
37478;DHT22;23334;54.316;10.182;2022-07-23T22:42:31;11.90;99.90
37478;DHT22;23334;54.316;10.182;2022-07-23T22:44:57;11.80;99.90
37478;DHT22;23334;54.316;10.182;2022-07-23T22:47:22;11.80;99.90
37478;DHT22;23334;54.316;10.182;2022-07-23T23:06:52;11.50;99.90
37478;DHT22;23334;54.316;10.182;2022-07-23T23:11:44;11.50;99.90
37478;DHT22;23334;54.316;10.182;2022-07-23T23:23:54;11.30;99.90
37478;DHT22;23334;54.316;10.182;2022-07-23T23:26:20;11.20;99.90
37478;DHT22;23334;54.316;10.182;2022-07-23T23:36:04;11.10;99.90
37478;DHT22;23334;54.316;10.182;2022-07-23T23:55:32;10.70;99.90
